createdAt,value
2022-09-06T00:35:13.057Z,18
2022-09-06T00:45:14.730Z,18.1
2022-09-06T00:55:17.269Z,18.1
2022-09-06T01:05:19.861Z,18.1
2022-09-06T01:15:21.713Z,18.2
2022-09-06T01:25:23.839Z,18.9
2022-09-06T01:35:26.134Z,18.4
2022-09-06T01:55:29.877Z,18.8
2022-09-06T02:05:32.340Z,19.1
2022-09-06T02:15:34.300Z,18.7
2022-09-06T02:25:36.510Z,18.6
2022-09-06T02:35:38.487Z,18.6
2022-09-06T02:45:40.932Z,18.9
2022-09-06T02:55:42.619Z,19
2022-09-06T03:05:44.493Z,18.7
2022-09-06T03:25:48.434Z,18.4
2022-09-06T03:35:50.412Z,18.3
2022-09-06T03:45:52.747Z,18.5
2022-09-06T03:55:54.713Z,18.3
2022-09-06T04:05:56.560Z,18.2
2022-09-06T04:15:59.095Z,18.2
2022-09-06T04:26:01.213Z,18.4
2022-09-06T04:36:03.836Z,18.5
2022-09-06T04:46:06.038Z,18.4
2022-09-06T04:56:08.252Z,18.2
2022-09-06T05:06:10.168Z,18.1
2022-09-06T05:16:12.287Z,18.6
2022-09-06T05:26:14.518Z,18.6
2022-09-06T05:36:16.161Z,18.5
2022-09-06T05:46:18.605Z,18.5
2022-09-06T05:56:21.170Z,18.8
2022-09-06T06:16:25.510Z,19.2
2022-09-06T06:26:27.810Z,19.5
2022-09-06T06:36:29.993Z,20.1
2022-09-06T06:46:31.643Z,21
2022-09-06T06:56:34.087Z,20.4
2022-09-06T07:16:38.060Z,22
2022-09-06T07:26:40.413Z,23.2
2022-09-06T07:36:42.115Z,22.7
2022-09-06T07:46:44.328Z,23.2
2022-09-06T07:56:46.123Z,24.2
2022-09-06T08:16:49.614Z,24.3
2022-09-06T08:26:51.608Z,24.3
2022-09-06T08:36:53.276Z,24.2
2022-09-06T08:46:55.039Z,24.5
2022-09-06T09:06:58.591Z,24.6
2022-09-06T09:17:00.448Z,25
2022-09-06T09:27:02.463Z,25.3
2022-09-06T09:47:06.914Z,25.6
2022-09-06T09:57:11.670Z,25.8
2022-09-06T10:07:11.554Z,25.9
2022-09-06T10:17:13.445Z,26.5
2022-09-06T10:27:15.241Z,26
2022-09-06T10:37:16.947Z,26.4
2022-09-06T10:47:19.411Z,26.5
2022-09-06T11:07:24.422Z,27
2022-09-06T11:17:26.174Z,26.9
2022-09-06T11:27:27.839Z,27.3
2022-09-06T11:37:30.429Z,27.7
2022-09-06T11:47:33.028Z,27.3
2022-09-06T11:57:35.494Z,27.7
2022-09-06T12:07:37.121Z,28
2022-09-06T12:17:39.639Z,28.3
2022-09-06T12:27:41.964Z,28.3
2022-09-06T12:37:44.049Z,29.1
2022-09-06T12:57:47.944Z,28.5
2022-09-06T13:37:56.004Z,28.8
2022-09-06T13:48:13.000Z,30
2022-09-06T13:58:00.463Z,29.5
2022-09-06T14:18:05.536Z,29.4
2022-09-06T14:28:08.245Z,29.3
2022-09-06T14:38:10.196Z,29.1
2022-09-06T14:48:12.662Z,28.6
2022-09-06T14:58:14.492Z,28.7
2022-09-06T15:18:18.767Z,29.1
2022-09-06T15:28:21.212Z,28.7
2022-09-06T15:38:23.850Z,28.4
2022-09-06T15:58:27.369Z,28
2022-09-06T16:18:31.721Z,27.4
2022-09-06T16:28:33.759Z,26.8
2022-09-06T16:48:38.646Z,26.1
2022-09-06T16:58:40.529Z,25.6
2022-09-06T17:08:42.254Z,25.3
2022-09-06T17:18:44.309Z,25.1
2022-09-06T17:28:46.719Z,24.8
2022-09-06T17:38:52.787Z,24.6
2022-09-06T17:48:50.792Z,24.3
2022-09-06T17:58:53.429Z,23.9
2022-09-06T18:08:55.844Z,23.6
2022-09-06T18:18:57.662Z,23.4
2022-09-06T18:28:59.575Z,23.1
2022-09-06T18:39:01.624Z,22.7
2022-09-06T18:49:03.868Z,22.4
2022-09-06T18:59:06.016Z,22.2
2022-09-06T19:09:08.425Z,22
2022-09-06T19:19:10.720Z,21.7
2022-09-06T19:29:13.267Z,21.4
2022-09-06T19:39:15.900Z,21.1
2022-09-06T19:49:18.480Z,20.9
2022-09-06T19:59:20.888Z,20.7
2022-09-06T20:09:23.485Z,20.5
2022-09-06T20:19:26.129Z,20.4
2022-09-06T20:29:28.306Z,20.3
2022-09-06T20:39:30.189Z,20
2022-09-06T20:49:31.981Z,19.8
2022-09-06T20:59:34.155Z,19.8
2022-09-06T21:09:36.647Z,20
2022-09-06T21:19:38.965Z,19.9
2022-09-06T21:29:40.838Z,19.9
2022-09-06T21:39:43.476Z,19.8
2022-09-06T21:49:45.946Z,19.8
2022-09-06T21:52:24.314Z,19.8
2022-09-06T21:59:57.263Z,19.8
2022-09-06T22:09:59.404Z,19.8
2022-09-06T22:20:01.506Z,19.9
2022-09-06T22:30:03.998Z,20.7
2022-09-06T22:40:06.469Z,21.3
2022-09-06T22:50:08.511Z,21.7
2022-09-06T23:00:10.392Z,21.6
2022-09-06T23:20:14.487Z,21.7
2022-09-06T23:30:16.394Z,21.8
2022-09-06T23:40:18.523Z,21.6
2022-09-06T23:50:20.756Z,21.3
